Fort Dodge, IA

11:27 PM CDT on April 01, 2015 (GMT -0500)
Fort Dodge Regional | | Change Station
CLOSE
Current Station
Airport
Location: Fort Dodge,
Elevation: 1165 ft
Nearby Weather Stations

Elev 1165 ft 42.55 °N, 94.19 °W | Updated 12 minutes ago

Thunderstorm
Thunderstorm
61 °F
Feels Like 61 °F
N
14
Wind Variable Wind from WSW
Gusts 21 mph

Today
High -- | Low -- °F
--% Chance of Precip.
Yesterday
High -- | Low -- °F
Precip. -- in
6:59 AM 7:42 PM
Waxing Gibbous, 95% visible
Pressure 29.71 in
Visibility 10.0 miles
Clouds Mostly Cloudy 6000 ft
Mostly Cloudy 6500 ft
Overcast 8000 ft
Dew Point 50 °F
Humidity 68%
Rainfall 0.07 in
Snow Depth Not available.
UV 0 out of 12
Pollen 10.00 out of 12
Air Quality Not available.
Flu Activity Not available.
METAR KFOD 020415Z AUTO 25012G18KT 10SM TS BKN060 BKN065 OVC080 16/10 A2971 RMK AO1 LTG DSNT ALQDS P0007

More Conditions Fewer Conditions

Pressure 29.71 in
Visibility 10.0 miles
Clouds Mostly Cloudy 6000 ft
Mostly Cloudy 6500 ft
Overcast 8000 ft
Dew Point 50 °F
Humidity 68%
Rainfall 0.07 in
Snow Depth Not available.
UV 0 out of 12
Pollen 10.00 out of 12
Air Quality Not available.
Flu Activity Not available.
METAR KFOD 020415Z AUTO 25012G18KT 10SM TS BKN060 BKN065 OVC080 16/10 A2971 RMK AO1 LTG DSNT ALQDS P0007

More Conditions Fewer Conditions

10-Day Weather Forecast

Almanac

Astronomy

Apr. 01, 2015 Rise Set
Actual Time
Civil Twilight
Nautical Twilight
Astronomical Twilight
Moon
Length of Visible Light
Length of Day
Tomorrow will be .
, % of the Moon is Illuminated

Today's Extremes

State Highs State Lows

Community

WunderPhotos

Upload Photos

1,810,197 photos uploaded!

WunderBlogs® & News

Nearby

Air Quality

  Air Quality AQ Index Pollutant
Not available.

Snow Depth

Station Depth Elevation

Earthquake Activity

City Distance Mag. Time & Date
Minimum magnitude displayed is 2.5.

Coastal Water Temperatures

Place Temperature

Stations

Nearby Weather Stations

Station Location Temp. Windchill Dew Point Humidity Wind Precip. Elev Updated Type